Time;durP1;ratioP1;P1;durP2;ratioP2;P2;SDS_P1;SDS_P2;PMS_P1;PMS_P2;Temp;Humidity;BMP_temperature;BMP_pressure;BME280_temperature;BME280_humidity;BME280_pressure;Samples;Min_cycle;Max_cycle;Signal;HPM_P1;HPM_P2
2023/04/20 00:02:06;;;;;;;21.65;15.00;;;12.30;99.90;;;;;;4972271;28;20042;-80
2023/04/20 00:04:36;;;;;;;24.40;16.42;;;12.40;99.90;;;;;;4956905;28;20149;-78
2023/04/20 00:07:04;;;;;;;23.63;15.55;;;12.30;99.90;;;;;;4955319;28;20051;-78
2023/04/20 00:09:35;;;;;;;23.27;16.13;;;12.20;99.90;;;;;;4965474;28;20089;-78
2023/04/20 00:12:05;;;;;;;25.10;16.52;;;12.20;99.90;;;;;;4979940;28;20038;-76
2023/04/20 00:14:33;;;;;;;24.02;14.95;;;12.10;99.90;;;;;;4957279;28;20058;-75
2023/04/20 00:17:00;;;;;;;19.40;14.82;;;12.20;99.90;;;;;;4955935;28;20050;-80
2023/04/20 00:19:31;;;;;;;25.35;14.52;;;12.20;99.90;;;;;;4959078;28;20132;-77
2023/04/20 00:21:59;;;;;;;20.10;13.07;;;12.20;99.90;;;;;;4952116;28;20078;-80
2023/04/20 00:24:27;;;;;;;20.98;14.32;;;12.20;99.90;;;;;;4950006;28;20082;-79
2023/04/20 00:26:58;;;;;;;22.80;15.40;;;12.10;99.90;;;;;;4974753;28;20056;-76
2023/04/20 00:32:23;;;;;;;20.33;13.73;;;12.10;99.90;;;;;;4956075;28;20047;-77
2023/04/20 00:34:51;;;;;;;23.77;14.25;;;12.20;99.90;;;;;;4958139;28;20557;-75
2023/04/20 00:37:19;;;;;;;22.23;14.52;;;12.20;99.90;;;;;;4959869;28;20073;-81
2023/04/20 00:39:46;;;;;;;18.98;13.93;;;12.20;99.90;;;;;;4946767;28;20490;-80
2023/04/20 00:42:14;;;;;;;20.02;13.30;;;12.20;99.90;;;;;;4957248;28;20345;-80
2023/04/20 00:44:44;;;;;;;20.08;14.30;;;12.10;99.90;;;;;;4968078;28;20451;-78
2023/04/20 00:47:12;;;;;;;19.80;13.57;;;12.00;99.90;;;;;;4952065;28;20050;-75
2023/04/20 00:49:39;;;;;;;21.92;13.40;;;12.00;99.90;;;;;;4964635;28;20461;-79
2023/04/20 00:52:15;;;;;;;20.08;13.20;;;12.00;99.90;;;;;;4958826;28;21192;-80
2023/04/20 00:54:42;;;;;;;20.67;12.57;;;12.00;99.90;;;;;;4959259;28;20397;-80
2023/04/20 00:57:13;;;;;;;21.42;13.40;;;12.10;99.90;;;;;;4974340;28;20050;-78
2023/04/20 00:59:43;;;;;;;25.65;14.48;;;12.10;99.90;;;;;;4975236;28;20046;-79
2023/04/20 01:02:10;;;;;;;20.85;13.20;;;12.00;99.90;;;;;;4975854;28;20047;-75
2023/04/20 01:04:40;;;;;;;21.00;14.43;;;11.90;99.90;;;;;;4992081;28;20061;-77
2023/04/20 01:07:07;;;;;;;20.20;13.73;;;11.80;99.90;;;;;;4943367;28;20062;-75
2023/04/20 01:09:38;;;;;;;18.65;13.38;;;11.80;99.90;;;;;;4954208;28;20043;-75
2023/04/20 01:12:10;;;;;;;;;;;11.80;99.90;;;;;;4972895;28;20401;-77
2023/04/20 01:14:43;;;;;;;17.65;12.38;;;11.80;99.90;;;;;;4962060;23;20016;-77
2023/04/20 01:17:10;;;;;;;18.30;11.85;;;11.80;99.90;;;;;;4973716;28;20061;-75
2023/04/20 01:19:38;;;;;;;19.58;12.68;;;11.70;99.90;;;;;;4958165;28;20124;-75
2023/04/20 01:22:06;;;;;;;14.88;10.85;;;11.80;99.90;;;;;;4954074;28;20054;-76
2023/04/20 01:24:34;;;;;;;13.77;10.48;;;11.80;99.90;;;;;;4971930;28;20512;-79
2023/04/20 01:27:05;;;;;;;13.48;10.38;;;11.80;99.90;;;;;;4958918;28;20050;-75
2023/04/20 01:29:33;;;;;;;15.05;10.90;;;11.80;99.90;;;;;;4957329;28;20050;-75
2023/04/20 01:32:01;;;;;;;15.90;11.25;;;11.80;99.90;;;;;;4974231;28;20049;-75
2023/04/20 01:34:28;;;;;;;20.45;10.90;;;11.90;99.90;;;;;;4957935;28;20054;-79
2023/04/20 01:36:56;;;;;;;15.05;11.07;;;11.90;99.90;;;;;;4955422;28;20054;-76
2023/04/20 01:39:26;;;;;;;19.48;11.40;;;11.90;99.90;;;;;;4954937;28;20129;-77
2023/04/20 01:41:58;;;;;;;24.73;12.73;;;11.90;99.90;;;;;;4957723;28;20156;-75
2023/04/20 01:44:25;;;;;;;18.05;11.95;;;11.80;99.90;;;;;;4973773;28;20042;-75
2023/04/20 01:46:56;;;;;;;;;;;11.80;99.90;;;;;;4959114;28;20397;-74
2023/04/20 01:49:23;;;;;;;16.75;12.73;;;11.90;99.90;;;;;;4989853;28;20329;-77
2023/04/20 01:51:54;;;;;;;17.38;12.20;;;11.90;99.90;;;;;;4958577;28;20371;-75
2023/04/20 01:54:24;;;;;;;19.45;12.35;;;11.90;99.90;;;;;;4958405;28;20053;-76
2023/04/20 01:56:52;;;;;;;17.45;11.88;;;12.00;99.90;;;;;;4973810;28;20050;-79
2023/04/20 01:59:21;;;;;;;20.85;12.02;;;11.90;99.90;;;;;;4975632;28;20086;-76
2023/04/20 02:01:49;;;;;;;16.92;11.57;;;11.80;99.90;;;;;;4958733;28;20043;-82
2023/04/20 02:04:20;;;;;;;20.55;12.18;;;11.90;99.90;;;;;;4944752;29;20058;-75
2023/04/20 02:06:47;;;;;;;19.20;11.50;;;11.90;99.90;;;;;;4935664;28;20435;-74
2023/04/20 02:09:15;;;;;;;20.02;12.30;;;11.90;99.90;;;;;;4948610;28;20672;-81
2023/04/20 02:11:43;;;;;;;20.48;12.02;;;11.80;99.90;;;;;;4949000;29;20078;-75
2023/04/20 02:14:11;;;;;;;19.10;13.00;;;11.90;99.90;;;;;;4963948;28;20389;-77
2023/04/20 02:16:38;;;;;;;18.38;12.25;;;11.90;99.90;;;;;;4964675;28;20057;-73
2023/04/20 02:19:05;;;;;;;18.42;12.45;;;11.80;99.90;;;;;;4965861;28;20074;-75
2023/04/20 02:21:40;;;;;;;17.25;11.73;;;11.80;99.90;;;;;;4940882;28;20149;-79
2023/04/20 02:24:08;;;;;;;18.30;12.52;;;11.70;99.90;;;;;;4949295;28;20417;-75
2023/04/20 02:26:35;;;;;;;19.77;11.30;;;11.50;99.90;;;;;;4936798;29;20043;-80
2023/04/20 02:29:04;;;;;;;19.20;11.90;;;11.40;99.90;;;;;;4930933;28;20053;-79
2023/04/20 02:31:33;;;;;;;19.88;12.48;;;11.30;99.90;;;;;;4934088;29;20417;-75
2023/04/20 02:34:01;;;;;;;16.90;11.73;;;11.20;99.90;;;;;;4931788;28;20061;-75
2023/04/20 02:36:28;;;;;;;19.00;12.15;;;11.20;99.90;;;;;;4943807;28;20513;-77
2023/04/20 02:38:56;;;;;;;18.38;11.70;;;11.30;99.90;;;;;;4948179;28;20450;-77
2023/04/20 02:41:24;;;;;;;17.98;12.35;;;11.20;99.90;;;;;;4919854;29;20141;-76
2023/04/20 02:43:53;;;;;;;16.85;11.85;;;11.20;99.90;;;;;;4933138;28;20436;-80
2023/04/20 02:46:21;;;;;;;17.52;12.07;;;11.10;99.90;;;;;;4726042;23;20045;-75
2023/04/20 02:48:49;;;;;;;16.88;11.80;;;11.20;99.90;;;;;;4994839;28;20417;-80
2023/04/20 02:51:24;;;;;;;20.90;12.30;;;11.10;99.90;;;;;;4989985;23;20038;-81
2023/04/20 02:53:51;;;;;;;17.33;11.73;;;11.10;99.90;;;;;;4961670;28;20050;-75
2023/04/20 02:56:19;;;;;;;17.90;11.77;;;11.00;99.90;;;;;;4987759;28;20034;-74
2023/04/20 02:58:47;;;;;;;17.55;11.65;;;11.10;99.90;;;;;;4977261;28;20066;-78
2023/04/20 03:01:20;;;;;;;17.17;11.90;;;11.20;99.90;;;;;;4969364;28;20049;-75
2023/04/20 03:03:48;;;;;;;16.70;11.07;;;11.10;99.90;;;;;;4977265;28;20814;-76
2023/04/20 03:06:16;;;;;;;16.60;11.73;;;11.10;99.90;;;;;;4961219;28;20050;-80
2023/04/20 03:08:43;;;;;;;16.33;11.25;;;11.00;99.90;;;;;;4976771;28;20393;-75
2023/04/20 03:11:12;;;;;;;17.48;13.00;;;10.80;99.90;;;;;;4967752;28;20397;-78
2023/04/20 03:13:42;;;;;;;24.38;12.10;;;10.80;99.90;;;;;;4989595;28;20564;-76
2023/04/20 03:16:10;;;;;;;16.70;11.95;;;10.80;99.90;;;;;;4989508;28;20054;-79
2023/04/20 03:18:39;;;;;;;15.85;10.98;;;10.90;99.90;;;;;;4980053;28;20054;-76
2023/04/20 03:21:09;;;;;;;17.40;11.73;;;10.80;99.90;;;;;;4977396;28;20136;-81
2023/04/20 03:23:36;;;;;;;18.52;12.82;;;10.70;99.90;;;;;;4975941;28;20054;-74
2023/04/20 03:26:09;;;;;;;17.48;12.25;;;10.60;99.90;;;;;;4973470;28;20069;-76
2023/04/20 03:28:41;;;;;;;17.80;13.27;;;10.70;99.90;;;;;;4965015;28;20046;-76
2023/04/20 03:31:10;;;;;;;18.42;12.70;;;10.50;99.90;;;;;;4974909;28;20046;-75
2023/04/20 03:33:37;;;;;;;17.40;12.13;;;10.40;99.90;;;;;;5012471;28;20400;-74
2023/04/20 03:36:05;;;;;;;16.80;12.07;;;10.50;99.90;;;;;;4994586;28;20433;-75
2023/04/20 03:38:32;;;;;;;21.35;12.48;;;10.50;99.90;;;;;;4995505;28;20141;-75
2023/04/20 03:41:00;;;;;;;15.23;11.55;;;10.50;99.90;;;;;;4975638;28;20046;-75
2023/04/20 03:43:27;;;;;;;15.27;11.35;;;10.50;99.90;;;;;;4967090;28;20517;-74
2023/04/20 03:45:58;;;;;;;18.13;12.38;;;10.70;99.90;;;;;;4993361;28;20065;-75
2023/04/20 03:48:28;;;;;;;16.65;12.10;;;10.50;99.90;;;;;;4975960;28;20382;-78
2023/04/20 03:50:56;;;;;;;15.50;11.43;;;10.40;99.90;;;;;;4988295;28;20312;-76
2023/04/20 03:53:23;;;;;;;16.20;11.10;;;10.40;99.90;;;;;;4976000;28;20105;-74
2023/04/20 03:55:50;;;;;;;16.15;11.35;;;10.40;99.90;;;;;;4976296;28;20433;-75
2023/04/20 03:58:17;;;;;;;17.83;11.93;;;10.40;99.90;;;;;;4975551;28;20405;-74
2023/04/20 04:00:45;;;;;;;20.63;11.50;;;10.40;99.90;;;;;;4975785;28;20061;-75
2023/04/20 04:03:13;;;;;;;15.63;10.77;;;10.30;99.90;;;;;;4969773;28;20081;-77
2023/04/20 04:05:42;;;;;;;14.15;10.98;;;10.30;99.90;;;;;;4968506;28;20181;-75
2023/04/20 04:08:09;;;;;;;19.58;11.02;;;10.30;99.90;;;;;;4980133;28;20463;-75
2023/04/20 04:10:37;;;;;;;16.15;11.00;;;10.30;99.90;;;;;;4965268;28;20141;-74
2023/04/20 04:13:04;;;;;;;18.35;10.32;;;10.40;99.90;;;;;;4990738;28;20062;-77
2023/04/20 04:15:32;;;;;;;17.08;10.82;;;10.40;99.90;;;;;;4975831;28;20092;-76
2023/04/20 04:18:01;;;;;;;14.30;11.43;;;10.50;99.90;;;;;;5008835;28;20042;-76
2023/04/20 04:20:29;;;;;;;19.50;11.02;;;10.40;99.90;;;;;;4994619;28;20436;-76
2023/04/20 04:22:57;;;;;;;14.05;10.70;;;10.40;99.90;;;;;;4965332;28;20109;-78
2023/04/20 04:25:27;;;;;;;14.85;11.23;;;10.20;99.90;;;;;;4994882;28;20121;-77
2023/04/20 04:28:00;;;;;;;17.70;10.95;;;10.30;99.90;;;;;;4963261;28;20657;-76
2023/04/20 04:30:28;;;;;;;15.43;11.50;;;10.10;99.90;;;;;;4965866;28;20038;-77
2023/04/20 04:32:58;;;;;;;17.38;12.40;;;10.00;99.90;;;;;;4963201;28;20041;-78
2023/04/20 04:35:26;;;;;;;17.23;11.25;;;9.90;99.90;;;;;;4966402;28;20621;-76
2023/04/20 04:37:56;;;;;;;15.27;11.90;;;10.00;99.90;;;;;;4977728;28;20050;-76
2023/04/20 04:40:27;;;;;;;;;;;9.90;99.90;;;;;;4968301;28;20042;-79
2023/04/20 04:42:55;;;;;;;15.27;11.23;;;10.00;99.90;;;;;;4994633;28;19931;-76
2023/04/20 04:45:24;;;;;;;19.77;12.23;;;10.10;99.90;;;;;;4974967;28;20513;-74
2023/04/20 04:47:52;;;;;;;20.13;11.38;;;10.10;99.90;;;;;;4994358;28;20045;-75
2023/04/20 04:50:20;;;;;;;20.58;12.70;;;9.90;99.90;;;;;;4969180;28;20142;-75
2023/04/20 04:52:48;;;;;;;18.30;13.13;;;10.10;99.90;;;;;;4970465;23;20418;-74
2023/04/20 04:55:15;;;;;;;17.65;12.52;;;10.40;99.90;;;;;;4935783;28;20072;-74
2023/04/20 04:57:43;;;;;;;18.98;12.40;;;10.60;99.90;;;;;;4920654;29;20051;-75
2023/04/20 05:00:11;;;;;;;18.85;13.68;;;10.60;99.90;;;;;;4939009;28;20413;-76
2023/04/20 05:02:43;;;;;;;19.05;13.60;;;10.70;99.90;;;;;;4941623;28;20431;-74
2023/04/20 05:05:11;;;;;;;19.08;13.35;;;10.70;99.90;;;;;;4923441;29;20046;-77
2023/04/20 05:07:49;;;;;;;19.42;13.27;;;10.80;99.90;;;;;;4936152;29;20058;-79
2023/04/20 05:10:17;;;;;;;21.88;13.55;;;10.90;99.90;;;;;;4920360;28;20075;-75
2023/04/20 05:12:45;;;;;;;21.00;13.45;;;11.00;99.90;;;;;;4934218;28;20142;-79
2023/04/20 05:18:39;;;;;;;73.65;44.78;;;11.40;99.90;;;;;;4963418;28;20043;-77
2023/04/20 05:21:25;;;;;;;151.45;86.97;;;11.70;99.90;;;;;;4954354;28;20390;-76
2023/04/20 05:24:30;;;;;;;163.65;96.45;;;11.90;99.90;;;;;;4954277;28;20499;-77
2023/04/20 05:27:10;;;;;;;32.67;22.02;;;11.90;99.90;;;;;;4939785;28;20484;-78
2023/04/20 05:29:43;;;;;;;26.13;14.90;;;11.80;99.90;;;;;;4939175;28;20093;-75
2023/04/20 05:32:12;;;;;;;19.67;13.52;;;11.60;99.90;;;;;;4937964;28;20035;-80
2023/04/20 05:34:43;;;;;;;22.55;13.93;;;11.70;99.90;;;;;;4950586;28;20051;-74
2023/04/20 05:37:11;;;;;;;23.95;14.07;;;11.50;99.90;;;;;;4932559;28;20417;-73
2023/04/20 05:39:50;;;;;;;20.35;14.05;;;11.50;99.90;;;;;;4935932;28;20221;-79
2023/04/20 05:42:23;;;;;;;27.35;14.27;;;11.60;99.90;;;;;;4934191;28;20067;-74
2023/04/20 05:44:53;;;;;;;20.90;13.77;;;11.60;99.90;;;;;;4938927;28;20047;-78
2023/04/20 05:47:30;;;;;;;24.88;14.95;;;11.60;99.90;;;;;;4951697;28;20373;-74
2023/04/20 05:49:58;;;;;;;23.20;13.73;;;11.70;99.90;;;;;;4942509;28;20059;-75
2023/04/20 05:52:26;;;;;;;20.70;13.85;;;11.80;99.90;;;;;;4940946;28;20440;-77
2023/04/20 05:54:58;;;;;;;19.38;13.93;;;11.80;99.90;;;;;;4946224;28;20043;-76
2023/04/20 05:57:25;;;;;;;23.45;13.98;;;12.00;99.90;;;;;;4939118;28;20055;-79
2023/04/20 05:59:56;;;;;;;22.20;13.75;;;12.10;99.90;;;;;;4950478;28;20090;-75
2023/04/20 06:02:23;;;;;;;20.05;13.27;;;12.20;99.90;;;;;;4951033;28;20049;-75
2023/04/20 06:04:51;;;;;;;24.50;14.25;;;12.30;99.90;;;;;;4961833;28;20032;-74
2023/04/20 06:07:19;;;;;;;83.75;55.20;;;12.40;99.90;;;;;;4928962;29;20181;-77
2023/04/20 06:09:47;;;;;;;253.60;146.82;;;12.50;99.90;;;;;;4942296;28;20450;-76
2023/04/20 06:12:17;;;;;;;96.13;61.13;;;12.80;99.90;;;;;;4937846;28;20039;-76
2023/04/20 06:14:50;;;;;;;32.90;21.70;;;12.90;99.90;;;;;;4938078;28;20418;-80
2023/04/20 06:17:17;;;;;;;24.77;15.82;;;12.70;99.90;;;;;;4936962;28;20477;-80
2023/04/20 06:19:46;;;;;;;21.13;13.80;;;12.40;99.90;;;;;;4938602;28;20340;-75
2023/04/20 06:22:15;;;;;;;21.83;14.20;;;12.30;99.90;;;;;;4967941;28;20355;-81
2023/04/20 06:24:43;;;;;;;24.45;14.30;;;12.30;99.90;;;;;;4933217;28;20071;-82
2023/04/20 06:27:13;;;;;;;23.35;13.93;;;12.40;99.90;;;;;;4942626;28;20165;-76
2023/04/20 06:29:43;;;;;;;26.30;15.10;;;12.50;99.90;;;;;;4971677;28;20624;-79
2023/04/20 06:32:18;;;;;;;23.20;15.27;;;12.60;99.90;;;;;;4953976;23;22162;-80
2023/04/20 06:34:49;;;;;;;21.25;13.85;;;12.30;99.90;;;;;;4978312;28;20061;-81
2023/04/20 06:37:21;;;;;;;24.50;16.35;;;12.40;99.90;;;;;;4953511;28;20073;-80
2023/04/20 06:39:53;;;;;;;23.42;14.95;;;12.60;99.90;;;;;;4960121;28;20389;-75
2023/04/20 06:42:21;;;;;;;24.60;14.65;;;12.60;99.90;;;;;;4957606;28;20046;-77
2023/04/20 06:44:49;;;;;;;29.67;15.18;;;12.80;99.90;;;;;;4994206;28;20279;-76
2023/04/20 06:47:16;;;;;;;27.85;16.63;;;12.80;99.90;;;;;;4960356;28;20142;-77
2023/04/20 06:49:46;;;;;;;23.23;14.95;;;12.80;99.90;;;;;;4960806;28;20402;-77
2023/04/20 06:52:13;;;;;;;29.48;16.40;;;12.90;99.90;;;;;;4961373;28;20038;-76
2023/04/20 06:54:42;;;;;;;27.67;14.70;;;13.00;99.90;;;;;;4976842;28;20058;-81
2023/04/20 06:57:09;;;;;;;30.52;17.17;;;13.20;99.90;;;;;;4958196;28;20126;-81
2023/04/20 06:59:42;;;;;;;25.95;15.80;;;13.30;99.90;;;;;;4953102;28;20104;-77
2023/04/20 07:02:11;;;;;;;35.95;17.23;;;13.30;99.90;;;;;;4954608;28;20039;-76
2023/04/20 07:04:39;;;;;;;31.33;16.23;;;13.20;99.90;;;;;;4951119;28;20401;-77
2023/04/20 07:07:06;;;;;;;26.85;15.85;;;13.20;99.90;;;;;;4957735;28;20053;-77
2023/04/20 07:09:35;;;;;;;25.67;15.98;;;13.40;99.90;;;;;;4940785;28;20055;-76
2023/04/20 07:12:03;;;;;;;30.65;17.90;;;13.60;99.90;;;;;;4939017;29;20055;-78
2023/04/20 07:14:30;;;;;;;30.35;16.20;;;13.90;99.90;;;;;;4942059;28;20043;-78
2023/04/20 07:17:03;;;;;;;35.05;16.58;;;14.10;99.90;;;;;;4957675;28;20035;-77
2023/04/20 07:19:35;;;;;;;33.65;16.00;;;14.30;99.90;;;;;;4936684;29;20058;-76
2023/04/20 07:22:03;;;;;;;28.95;15.95;;;14.30;99.90;;;;;;4950632;28;20398;-75
2023/04/20 07:25:04;;;;;;;27.75;17.40;;;14.40;99.90;;;;;;4956845;28;20061;-78
2023/04/20 07:27:42;;;;;;;34.45;17.25;;;14.50;99.90;;;;;;4929352;28;20113;-81
2023/04/20 07:30:10;;;;;;;31.00;15.55;;;14.60;99.90;;;;;;4937505;29;20050;-75
2023/04/20 07:32:40;;;;;;;30.33;15.30;;;14.70;99.90;;;;;;4942575;28;20051;-74
2023/04/20 07:35:09;;;;;;;31.83;15.63;;;14.80;99.90;;;;;;4952788;28;20414;-76
2023/04/20 07:37:42;;;;;;;28.40;14.85;;;14.90;99.90;;;;;;4959067;28;20079;-82
2023/04/20 07:40:16;;;;;;;30.95;16.10;;;15.00;99.90;;;;;;4961151;28;20042;-75
2023/04/20 07:42:44;;;;;;;27.90;14.25;;;15.00;99.90;;;;;;4960615;28;20450;-76
2023/04/20 07:45:14;;;;;;;24.05;12.35;;;15.00;99.90;;;;;;4976672;28;20394;-83
2023/04/20 07:47:45;;;;;;;22.75;12.55;;;15.00;99.90;;;;;;4960305;28;20046;-76
2023/04/20 07:50:14;;;;;;;24.63;12.80;;;14.90;99.90;;;;;;4956530;28;20142;-75
2023/04/20 07:52:43;;;;;;;24.95;12.85;;;14.90;99.90;;;;;;4964126;28;20082;-74
2023/04/20 07:55:10;;;;;;;21.55;12.90;;;14.80;99.90;;;;;;4957608;28;20081;-77
2023/04/20 07:57:40;;;;;;;16.00;10.48;;;15.00;99.90;;;;;;4959966;28;20524;-77
2023/04/20 08:00:09;;;;;;;21.83;10.35;;;15.10;99.90;;;;;;4991571;28;20153;-82
2023/04/20 08:02:36;;;;;;;17.40;9.32;;;15.10;99.90;;;;;;4976496;28;20038;-77
2023/04/20 08:05:08;;;;;;;15.23;9.00;;;15.20;99.90;;;;;;4959519;28;20058;-76
2023/04/20 08:07:37;;;;;;;18.85;9.77;;;15.10;99.90;;;;;;4960412;28;20081;-77
2023/04/20 08:10:06;;;;;;;14.68;9.32;;;15.30;99.90;;;;;;4959385;28;20485;-81
2023/04/20 08:12:37;;;;;;;14.23;8.15;;;15.30;99.90;;;;;;4942030;28;20379;-78
2023/04/20 08:15:05;;;;;;;18.50;8.70;;;15.60;99.90;;;;;;4956791;28;20062;-83
2023/04/20 08:17:33;;;;;;;17.60;8.68;;;15.90;99.90;;;;;;4988982;28;20042;-77
2023/04/20 08:20:01;;;;;;;14.45;8.07;;;16.10;99.90;;;;;;4972857;28;20109;-83
2023/04/20 08:22:32;;;;;;;20.20;8.32;;;16.20;99.90;;;;;;4957625;28;20486;-83
2023/04/20 08:25:01;;;;;;;17.08;8.48;;;16.50;99.90;;;;;;4960052;28;20054;-81
2023/04/20 08:27:36;;;;;;;12.43;7.47;;;16.70;99.90;;;;;;4971773;28;20146;-74
2023/04/20 08:30:04;;;;;;;14.82;7.85;;;16.70;99.90;;;;;;4941305;28;20142;-76
2023/04/20 08:32:33;;;;;;;13.60;6.93;;;16.70;99.60;;;;;;4975616;28;20042;-77
2023/04/20 08:35:03;;;;;;;;;;;16.70;99.30;;;;;;4957292;28;20078;-76
2023/04/20 08:37:41;;;;;;;12.77;6.90;;;16.60;97.80;;;;;;4986329;28;19922;-77
2023/04/20 08:40:18;;;;;;;12.85;7.15;;;16.80;98.70;;;;;;4955698;28;20073;-76
2023/04/20 08:42:46;;;;;;;15.82;6.82;;;16.80;97.90;;;;;;4974056;28;20066;-77
2023/04/20 08:45:15;;;;;;;13.40;7.03;;;16.70;97.40;;;;;;4960117;28;20047;-80
2023/04/20 08:47:45;;;;;;;15.23;6.53;;;16.70;97.20;;;;;;4958708;28;20066;-77
2023/04/20 08:50:14;;;;;;;12.60;6.47;;;16.70;95.10;;;;;;4991282;28;20058;-77
2023/04/20 08:52:41;;;;;;;12.25;6.00;;;16.80;94.00;;;;;;4974789;28;20640;-78
2023/04/20 08:55:09;;;;;;;9.77;6.43;;;16.70;93.60;;;;;;4972239;28;20120;-78
2023/04/20 08:57:42;;;;;;;11.02;6.63;;;16.70;94.50;;;;;;4959395;28;20046;-80
2023/04/20 09:00:14;;;;;;;16.60;8.70;;;16.80;94.70;;;;;;4959614;28;20047;-77
2023/04/20 09:03:00;;;;;;;9.77;6.28;;;16.60;95.60;;;;;;4958956;28;20291;-79
2023/04/20 09:05:32;;;;;;;8.45;6.35;;;16.50;95.90;;;;;;4958433;28;20050;-78
2023/04/20 09:08:04;;;;;;;12.25;7.07;;;16.40;96.50;;;;;;4990217;28;20057;-74
2023/04/20 09:10:52;;;;;;;10.73;6.50;;;16.40;96.80;;;;;;4974296;23;20042;-78
2023/04/20 09:13:28;;;;;;;11.20;6.65;;;16.30;97.00;;;;;;4979130;28;20073;-79
2023/04/20 09:16:08;;;;;;;13.60;8.05;;;16.40;96.80;;;;;;5010187;28;20051;-78
2023/04/20 09:18:52;;;;;;;11.30;6.50;;;16.40;96.70;;;;;;4972768;28;20506;-77
2023/04/20 09:21:32;;;;;;;11.57;7.15;;;16.50;96.70;;;;;;4958942;28;20058;-81
2023/04/20 09:24:14;;;;;;;13.13;6.80;;;16.60;96.00;;;;;;4964141;28;20088;-79
2023/04/20 09:26:52;;;;;;;13.85;8.52;;;16.60;95.80;;;;;;4977071;28;20140;-79
2023/04/20 09:29:30;;;;;;;16.23;9.45;;;16.60;96.30;;;;;;4995429;28;20053;-75
2023/04/20 09:32:01;;;;;;;10.13;6.95;;;17.00;95.20;;;;;;4987648;28;20070;-76
2023/04/20 09:34:47;;;;;;;13.95;7.47;;;17.00;94.20;;;;;;5013153;28;20046;-78
2023/04/20 09:37:24;;;;;;;13.60;7.53;;;17.00;94.70;;;;;;4965179;28;20516;-75
2023/04/20 09:40:00;;;;;;;12.73;8.50;;;17.00;95.80;;;;;;4994709;28;20045;-82
2023/04/20 09:42:37;;;;;;;11.02;7.28;;;16.90;95.40;;;;;;4979013;28;20053;-77
2023/04/20 09:45:27;;;;;;;11.02;6.50;;;17.10;95.00;;;;;;4976205;28;20177;-83
2023/04/20 09:47:55;;;;;;;14.40;7.77;;;17.30;93.20;;;;;;4965051;23;20066;-80
2023/04/20 09:50:23;;;;;;;12.30;7.38;;;17.50;95.30;;;;;;4957304;28;20061;-84
2023/04/20 09:53:04;;;;;;;13.25;6.90;;;17.50;95.50;;;;;;4956761;28;20054;-76
2023/04/20 09:55:32;;;;;;;12.80;7.13;;;17.60;94.80;;;;;;4977386;28;20038;-76
2023/04/20 09:58:04;;;;;;;10.52;6.80;;;17.80;94.70;;;;;;4959828;28;20038;-75
2023/04/20 10:00:31;;;;;;;11.60;6.38;;;18.00;93.40;;;;;;4975668;28;20062;-79
2023/04/20 10:02:59;;;;;;;12.85;6.18;;;18.20;93.30;;;;;;4944406;28;20110;-72
2023/04/20 10:05:38;;;;;;;12.30;6.82;;;18.50;92.00;;;;;;4961531;28;20421;-78
2023/04/20 10:08:11;;;;;;;12.68;6.55;;;18.90;91.10;;;;;;4961557;28;20077;-82
2023/04/20 10:10:47;;;;;;;9.50;6.07;;;19.20;89.70;;;;;;4951697;28;20055;-79
2023/04/20 10:13:20;;;;;;;12.50;7.10;;;19.00;87.30;;;;;;4960346;28;20026;-75
2023/04/20 10:16:14;;;;;;;;;;;;;;;;;;;;;
2023/04/20 10:19:10;;;;;;;12.15;6.32;;;19.30;90.00;;;;;;4964363;28;20082;-77
2023/04/20 10:21:58;;;;;;;10.30;6.25;;;19.70;88.60;;;;;;4972992;28;20046;-83
2023/04/20 10:24:30;;;;;;;11.77;6.80;;;18.90;87.10;;;;;;4947465;28;20061;-82
2023/04/20 10:26:58;;;;;;;10.10;6.55;;;19.00;90.80;;;;;;4990417;23;20141;-82
2023/04/20 10:29:35;;;;;;;10.48;6.50;;;19.90;88.60;;;;;;4971923;28;20045;-77
2023/04/20 10:32:27;;;;;;;10.80;5.63;;;20.20;83.80;;;;;;4980146;28;20041;-77
2023/04/20 10:35:06;;;;;;;12.02;6.07;;;20.00;82.70;;;;;;4973233;28;20046;-85
2023/04/20 10:37:55;;;;;;;10.27;5.53;;;20.00;83.10;;;;;;4940909;28;20157;-74
2023/04/20 10:40:42;;;;;;;11.38;5.65;;;19.80;84.90;;;;;;4984662;28;20054;-78
2023/04/20 10:43:43;;;;;;;11.35;5.65;;;19.60;83.90;;;;;;4994212;28;20057;-77
2023/04/20 10:46:26;;;;;;;9.77;5.72;;;19.70;82.60;;;;;;4980267;28;20038;-85
2023/04/20 10:49:02;;;;;;;7.95;5.47;;;19.50;80.70;;;;;;5009860;28;20137;-87
2023/04/20 10:51:52;;;;;;;9.45;5.97;;;19.50;82.30;;;;;;4977254;28;20113;-82
2023/04/20 10:54:40;;;;;;;9.90;5.55;;;19.50;79.70;;;;;;4974742;28;20137;-73
2023/04/20 10:57:18;;;;;;;9.15;5.60;;;19.20;80.20;;;;;;4963149;28;20050;-86
2023/04/20 10:59:48;;;;;;;9.77;5.13;;;19.10;79.30;;;;;;4987815;28;20505;-80
2023/04/20 11:02:23;;;;;;;8.65;5.53;;;18.80;79.70;;;;;;4979419;28;20052;-75
2023/04/20 11:04:59;;;;;;;9.90;5.45;;;18.60;79.60;;;;;;4958634;28;20101;-87
2023/04/20 11:07:32;;;;;;;11.48;6.05;;;18.30;81.10;;;;;;4964970;28;20396;-75
2023/04/20 11:10:16;;;;;;;9.23;5.57;;;18.20;81.70;;;;;;4978558;28;20038;-77
2023/04/20 11:12:46;;;;;;;10.98;5.80;;;18.40;81.30;;;;;;4966346;28;20055;-79
2023/04/20 11:15:15;;;;;;;10.13;5.70;;;18.40;81.10;;;;;;4958355;28;20434;-78
2023/04/20 11:21:13;;;;;;;12.55;5.63;;;18.00;81.10;;;;;;5029886;23;20042;-76
2023/04/20 11:23:41;;;;;;;7.78;5.53;;;17.90;81.70;;;;;;4973251;28;20058;-75
2023/04/20 11:26:10;;;;;;;8.32;5.88;;;17.90;81.50;;;;;;4974994;28;20043;-75
2023/04/20 11:28:56;;;;;;;9.57;5.90;;;17.90;83.50;;;;;;4993956;28;20501;-74
2023/04/20 11:31:29;;;;;;;10.85;6.88;;;18.00;83.40;;;;;;4954848;28;20410;-79
2023/04/20 11:34:07;;;;;;;10.00;6.35;;;18.10;84.80;;;;;;4977297;28;20038;-74
2023/04/20 11:36:41;;;;;;;11.20;6.60;;;18.00;83.20;;;;;;4954331;28;20046;-87
2023/04/20 11:39:29;;;;;;;8.43;6.38;;;18.10;83.80;;;;;;4974765;28;20141;-75
2023/04/20 11:42:02;;;;;;;9.40;6.15;;;18.10;81.90;;;;;;4962044;28;20089;-78
2023/04/20 11:48:35;;;;;;;8.40;5.78;;;18.20;81.80;;;;;;5580460;23;20046;-82
2023/04/20 11:53:52;;;;;;;9.20;5.95;;;18.50;78.40;;;;;;5460509;23;20063;-79
2023/04/20 11:56:19;;;;;;;8.80;6.47;;;18.50;79.40;;;;;;4940007;29;20050;-81
2023/04/20 12:10:44;;;;;;;7.47;5.32;;;20.50;72.50;;;;;;4912896;29;20046;-79
2023/04/20 12:13:13;;;;;;;11.10;5.53;;;21.30;69.80;;;;;;4915864;29;20051;-79
2023/04/20 12:15:46;;;;;;;8.50;5.25;;;21.40;67.40;;;;;;4907687;29;20055;-78
2023/04/20 12:18:19;;;;;;;7.18;4.65;;;21.90;65.50;;;;;;4911641;29;20051;-79
2023/04/20 12:23:47;;;;;;;6.68;4.80;;;21.20;65.70;;;;;;4984220;23;20047;-83
2023/04/20 12:30:10;;;;;;;8.15;3.20;;;21.80;63.70;;;;;;5268756;23;20494;-77
2023/04/20 12:32:38;;;;;;;6.25;2.92;;;22.90;57.80;;;;;;4899680;29;20122;-77
2023/04/20 12:35:53;;;;;;;5.22;2.80;;;24.00;56.20;;;;;;4901632;29;20508;-75
2023/04/20 12:38:49;;;;;;;4.85;2.80;;;24.30;53.20;;;;;;4909136;23;20395;-79
2023/04/20 12:46:20;;;;;;;4.22;2.38;;;24.50;54.80;;;;;;4831732;29;20036;-84
2023/04/20 12:49:10;;;;;;;5.68;2.97;;;27.10;49.60;;;;;;4908476;29;20485;-78
2023/04/20 12:54:33;;;;;;;5.97;2.38;;;26.40;47.00;;;;;;5158210;23;20040;-78
2023/04/20 13:02:06;;;;;;;10.38;2.65;;;26.30;47.60;;;;;;4965501;23;20495;-82
2023/04/20 13:04:59;;;;;;;;;;;;;;;;;;;;;
2023/04/20 13:17:06;;;;;;;;;;;;;;;;;;;;;
2023/04/20 13:36:43;;;;;;;9.63;3.90;;;21.20;65.50;;;;;;4906042;29;20074;-79
2023/04/20 13:39:38;;;;;;;8.82;3.85;;;21.80;59.50;;;;;;4915443;29;20063;-79
2023/04/20 13:42:42;;;;;;;7.78;3.83;;;19.80;65.70;;;;;;4897349;29;20049;-84
2023/04/20 13:45:32;;;;;;;8.15;3.28;;;19.30;65.10;;;;;;4899001;29;20040;-78
2023/04/20 13:48:04;;;;;;;6.57;3.95;;;19.10;65.30;;;;;;4871723;29;20055;-78
2023/04/20 13:50:32;;;;;;;7.43;3.78;;;20.50;64.20;;;;;;4888030;29;20055;-78
2023/04/20 13:53:04;;;;;;;6.00;4.15;;;22.90;59.70;;;;;;4908831;29;20057;-76
2023/04/20 13:59:02;;;;;;;7.30;3.63;;;21.50;60.40;;;;;;4854430;29;20041;-76
2023/04/20 14:02:23;;;;;;;8.05;3.10;;;22.10;59.20;;;;;;4848574;29;20054;-76
2023/04/20 14:05:21;;;;;;;9.52;4.15;;;24.10;55.70;;;;;;4826054;29;20133;-77
2023/04/20 14:08:22;;;;;;;6.85;3.50;;;25.30;53.90;;;;;;4832155;29;20053;-77
2023/04/20 14:10:56;;;;;;;7.25;3.50;;;26.00;52.00;;;;;;4834061;29;20152;-77
2023/04/20 14:13:30;;;;;;;6.68;3.70;;;25.30;53.90;;;;;;4838895;29;20072;-76
2023/04/20 14:15:59;;;;;;;5.63;3.65;;;27.10;51.20;;;;;;4839713;29;20125;-78
2023/04/20 14:18:29;;;;;;;6.05;3.80;;;28.60;49.70;;;;;;4839360;29;20224;-78
2023/04/20 14:20:57;;;;;;;;;;;29.50;48.80;;;;;;4834552;29;20046;-78
2023/04/20 14:23:24;;;;;;;6.25;3.85;;;29.60;49.20;;;;;;4840607;29;19924;-77